sensor_id;sensor_type;location;lat;lon;timestamp;temperature;humidity
52034;DHT22;38045;52.988;6.536;2023-07-02T00:01:46;16.20;99.90
52034;DHT22;38045;52.988;6.536;2023-07-02T00:04:12;16.10;99.90
52034;DHT22;38045;52.988;6.536;2023-07-02T00:06:51;16.10;99.90
52034;DHT22;38045;52.988;6.536;2023-07-02T00:09:16;16.10;99.90
52034;DHT22;38045;52.988;6.536;2023-07-02T00:11:44;16.10;99.90
52034;DHT22;38045;52.988;6.536;2023-07-02T00:14:11;16.10;99.90
52034;DHT22;38045;52.988;6.536;2023-07-02T00:16:42;16.10;99.90
52034;DHT22;38045;52.988;6.536;2023-07-02T00:19:08;16.10;99.90
52034;DHT22;38045;52.988;6.536;2023-07-02T00:21:34;16.10;99.90
52034;DHT22;38045;52.988;6.536;2023-07-02T00:24:02;16.10;99.90
52034;DHT22;38045;52.988;6.536;2023-07-02T00:26:28;16.10;99.90
52034;DHT22;38045;52.988;6.536;2023-07-02T00:28:55;16.00;99.90
52034;DHT22;38045;52.988;6.536;2023-07-02T00:31:21;16.00;99.90
52034;DHT22;38045;52.988;6.536;2023-07-02T00:33:48;16.00;99.90
52034;DHT22;38045;52.988;6.536;2023-07-02T00:36:13;16.00;99.90
52034;DHT22;38045;52.988;6.536;2023-07-02T00:38:44;16.00;99.90
52034;DHT22;38045;52.988;6.536;2023-07-02T00:41:10;16.00;99.90
52034;DHT22;38045;52.988;6.536;2023-07-02T00:43:36;15.90;99.90
52034;DHT22;38045;52.988;6.536;2023-07-02T00:46:18;15.90;99.90
52034;DHT22;38045;52.988;6.536;2023-07-02T00:48:48;15.80;99.90
52034;DHT22;38045;52.988;6.536;2023-07-02T00:51:18;15.80;99.90
52034;DHT22;38045;52.988;6.536;2023-07-02T00:53:45;15.70;99.90
52034;DHT22;38045;52.988;6.536;2023-07-02T00:56:11;15.70;99.90
52034;DHT22;38045;52.988;6.536;2023-07-02T00:58:43;15.60;99.90
52034;DHT22;38045;52.988;6.536;2023-07-02T01:01:24;15.60;99.90
52034;DHT22;38045;52.988;6.536;2023-07-02T01:04:02;15.50;99.90
52034;DHT22;38045;52.988;6.536;2023-07-02T01:06:34;15.50;99.90
52034;DHT22;38045;52.988;6.536;2023-07-02T01:09:06;15.50;99.90
52034;DHT22;38045;52.988;6.536;2023-07-02T01:11:36;15.40;99.90
52034;DHT22;38045;52.988;6.536;2023-07-02T01:14:14;15.30;99.90
52034;DHT22;38045;52.988;6.536;2023-07-02T01:16:42;15.30;99.90
52034;DHT22;38045;52.988;6.536;2023-07-02T01:19:18;15.20;99.90
52034;DHT22;38045;52.988;6.536;2023-07-02T01:21:46;15.20;99.90
52034;DHT22;38045;52.988;6.536;2023-07-02T01:24:12;15.10;99.90
52034;DHT22;38045;52.988;6.536;2023-07-02T01:26:39;15.10;99.90
52034;DHT22;38045;52.988;6.536;2023-07-02T01:29:18;15.00;99.90
52034;DHT22;38045;52.988;6.536;2023-07-02T01:31:45;14.90;99.90
52034;DHT22;38045;52.988;6.536;2023-07-02T01:34:11;14.90;99.90
52034;DHT22;38045;52.988;6.536;2023-07-02T01:36:37;14.80;99.90
52034;DHT22;38045;52.988;6.536;2023-07-02T01:39:03;14.80;99.90
52034;DHT22;38045;52.988;6.536;2023-07-02T01:41:29;14.80;99.90
52034;DHT22;38045;52.988;6.536;2023-07-02T01:43:55;14.80;99.90
52034;DHT22;38045;52.988;6.536;2023-07-02T01:46:21;14.70;99.90
52034;DHT22;38045;52.988;6.536;2023-07-02T01:48:46;14.70;99.90
52034;DHT22;38045;52.988;6.536;2023-07-02T01:51:12;14.70;99.90
52034;DHT22;38045;52.988;6.536;2023-07-02T01:53:39;14.70;99.90
52034;DHT22;38045;52.988;6.536;2023-07-02T01:56:05;14.70;99.90
52034;DHT22;38045;52.988;6.536;2023-07-02T01:58:30;14.60;99.90
52034;DHT22;38045;52.988;6.536;2023-07-02T02:00:56;14.60;99.90
52034;DHT22;38045;52.988;6.536;2023-07-02T02:03:22;14.60;99.90
52034;DHT22;38045;52.988;6.536;2023-07-02T02:05:48;14.50;99.90
52034;DHT22;38045;52.988;6.536;2023-07-02T02:08:13;14.50;99.90
52034;DHT22;38045;52.988;6.536;2023-07-02T02:10:39;14.50;99.90
52034;DHT22;38045;52.988;6.536;2023-07-02T02:13:05;14.40;99.90
52034;DHT22;38045;52.988;6.536;2023-07-02T02:15:30;14.40;99.90
52034;DHT22;38045;52.988;6.536;2023-07-02T02:17:56;14.40;99.90
52034;DHT22;38045;52.988;6.536;2023-07-02T02:20:21;14.30;99.90
52034;DHT22;38045;52.988;6.536;2023-07-02T02:22:47;14.30;99.90
52034;DHT22;38045;52.988;6.536;2023-07-02T02:25:13;14.30;99.90
52034;DHT22;38045;52.988;6.536;2023-07-02T02:27:39;14.20;99.90
52034;DHT22;38045;52.988;6.536;2023-07-02T02:30:05;14.20;99.90
52034;DHT22;38045;52.988;6.536;2023-07-02T02:32:30;14.20;99.90
52034;DHT22;38045;52.988;6.536;2023-07-02T02:34:56;14.20;99.90
52034;DHT22;38045;52.988;6.536;2023-07-02T02:37:22;14.10;99.90
52034;DHT22;38045;52.988;6.536;2023-07-02T02:39:49;14.00;99.90
52034;DHT22;38045;52.988;6.536;2023-07-02T02:42:14;14.00;99.90
52034;DHT22;38045;52.988;6.536;2023-07-02T02:44:40;13.90;99.90
52034;DHT22;38045;52.988;6.536;2023-07-02T02:47:05;13.80;99.90
52034;DHT22;38045;52.988;6.536;2023-07-02T02:49:31;13.80;99.90
52034;DHT22;38045;52.988;6.536;2023-07-02T02:51:57;13.70;99.90
52034;DHT22;38045;52.988;6.536;2023-07-02T02:54:22;13.70;99.90
52034;DHT22;38045;52.988;6.536;2023-07-02T02:56:48;13.60;99.90
52034;DHT22;38045;52.988;6.536;2023-07-02T02:59:13;13.60;99.90
52034;DHT22;38045;52.988;6.536;2023-07-02T03:01:39;13.60;99.90
52034;DHT22;38045;52.988;6.536;2023-07-02T03:04:05;13.60;99.90
52034;DHT22;38045;52.988;6.536;2023-07-02T03:06:33;13.50;99.90
52034;DHT22;38045;52.988;6.536;2023-07-02T03:08:59;13.50;99.90
52034;DHT22;38045;52.988;6.536;2023-07-02T03:11:25;13.50;99.90
52034;DHT22;38045;52.988;6.536;2023-07-02T03:13:50;13.50;99.90
52034;DHT22;38045;52.988;6.536;2023-07-02T03:16:16;13.40;99.90
52034;DHT22;38045;52.988;6.536;2023-07-02T03:18:41;13.40;99.90
52034;DHT22;38045;52.988;6.536;2023-07-02T03:21:07;13.40;99.90
52034;DHT22;38045;52.988;6.536;2023-07-02T03:23:33;13.50;99.90
52034;DHT22;38045;52.988;6.536;2023-07-02T03:25:58;13.50;99.90
52034;DHT22;38045;52.988;6.536;2023-07-02T03:28:24;13.50;99.90
52034;DHT22;38045;52.988;6.536;2023-07-02T03:30:49;13.50;99.90
52034;DHT22;38045;52.988;6.536;2023-07-02T03:33:15;13.60;99.90
52034;DHT22;38045;52.988;6.536;2023-07-02T03:35:41;13.60;99.90
52034;DHT22;38045;52.988;6.536;2023-07-02T03:38:07;13.60;99.90
52034;DHT22;38045;52.988;6.536;2023-07-02T03:40:32;13.60;99.90
52034;DHT22;38045;52.988;6.536;2023-07-02T03:42:58;13.60;99.90
52034;DHT22;38045;52.988;6.536;2023-07-02T03:45:24;13.60;99.90
52034;DHT22;38045;52.988;6.536;2023-07-02T03:47:49;13.60;99.90
52034;DHT22;38045;52.988;6.536;2023-07-02T03:50:15;13.60;99.90
52034;DHT22;38045;52.988;6.536;2023-07-02T03:52:40;13.70;99.90
52034;DHT22;38045;52.988;6.536;2023-07-02T03:55:06;13.70;99.90
52034;DHT22;38045;52.988;6.536;2023-07-02T03:57:32;13.70;99.90
52034;DHT22;38045;52.988;6.536;2023-07-02T03:59:58;13.80;99.90
52034;DHT22;38045;52.988;6.536;2023-07-02T04:02:23;13.80;99.90
52034;DHT22;38045;52.988;6.536;2023-07-02T04:04:49;13.90;99.90
52034;DHT22;38045;52.988;6.536;2023-07-02T04:07:14;13.90;99.90
52034;DHT22;38045;52.988;6.536;2023-07-02T04:09:41;14.00;99.90
52034;DHT22;38045;52.988;6.536;2023-07-02T04:12:07;14.00;99.90
52034;DHT22;38045;52.988;6.536;2023-07-02T04:14:33;14.00;99.90
52034;DHT22;38045;52.988;6.536;2023-07-02T04:16:58;14.00;99.90
52034;DHT22;38045;52.988;6.536;2023-07-02T04:19:24;14.00;99.90
52034;DHT22;38045;52.988;6.536;2023-07-02T04:21:49;14.10;99.90
52034;DHT22;38045;52.988;6.536;2023-07-02T04:24:15;14.10;99.90
52034;DHT22;38045;52.988;6.536;2023-07-02T04:26:41;14.20;99.90
52034;DHT22;38045;52.988;6.536;2023-07-02T04:29:11;14.20;99.90
52034;DHT22;38045;52.988;6.536;2023-07-02T04:31:37;14.30;99.90
52034;DHT22;38045;52.988;6.536;2023-07-02T04:34:03;14.40;99.90
52034;DHT22;38045;52.988;6.536;2023-07-02T04:36:28;14.50;99.90
52034;DHT22;38045;52.988;6.536;2023-07-02T04:38:54;14.50;99.90
52034;DHT22;38045;52.988;6.536;2023-07-02T04:41:20;14.70;99.90
52034;DHT22;38045;52.988;6.536;2023-07-02T04:43:45;14.80;99.90
52034;DHT22;38045;52.988;6.536;2023-07-02T04:46:11;14.90;99.90
52034;DHT22;38045;52.988;6.536;2023-07-02T04:48:38;15.00;99.90
52034;DHT22;38045;52.988;6.536;2023-07-02T04:51:04;15.00;99.90
52034;DHT22;38045;52.988;6.536;2023-07-02T04:53:29;15.10;99.90
52034;DHT22;38045;52.988;6.536;2023-07-02T04:55:55;15.10;99.90
52034;DHT22;38045;52.988;6.536;2023-07-02T04:58:22;15.10;99.90
52034;DHT22;38045;52.988;6.536;2023-07-02T05:00:48;15.20;99.90
52034;DHT22;38045;52.988;6.536;2023-07-02T05:03:14;15.30;99.90
52034;DHT22;38045;52.988;6.536;2023-07-02T05:05:39;15.30;99.90
52034;DHT22;38045;52.988;6.536;2023-07-02T05:08:05;15.30;99.90
52034;DHT22;38045;52.988;6.536;2023-07-02T05:10:31;15.40;99.90
52034;DHT22;38045;52.988;6.536;2023-07-02T05:12:56;15.50;99.90
52034;DHT22;38045;52.988;6.536;2023-07-02T05:15:23;15.50;99.90
52034;DHT22;38045;52.988;6.536;2023-07-02T05:17:49;15.50;99.90
52034;DHT22;38045;52.988;6.536;2023-07-02T05:20:15;15.60;99.90
52034;DHT22;38045;52.988;6.536;2023-07-02T05:22:40;15.60;99.90
52034;DHT22;38045;52.988;6.536;2023-07-02T05:25:06;15.70;99.90
52034;DHT22;38045;52.988;6.536;2023-07-02T05:27:32;15.70;99.90
52034;DHT22;38045;52.988;6.536;2023-07-02T05:29:57;15.80;99.90
52034;DHT22;38045;52.988;6.536;2023-07-02T05:32:23;15.80;99.90
52034;DHT22;38045;52.988;6.536;2023-07-02T05:34:49;15.90;99.90
52034;DHT22;38045;52.988;6.536;2023-07-02T05:37:14;16.00;99.90
52034;DHT22;38045;52.988;6.536;2023-07-02T05:39:40;16.00;99.90
52034;DHT22;38045;52.988;6.536;2023-07-02T05:42:05;16.10;99.90
52034;DHT22;38045;52.988;6.536;2023-07-02T05:44:31;16.10;99.90
52034;DHT22;38045;52.988;6.536;2023-07-02T05:46:57;16.20;99.90
52034;DHT22;38045;52.988;6.536;2023-07-02T05:49:22;16.20;99.90
52034;DHT22;38045;52.988;6.536;2023-07-02T05:51:48;16.40;99.90
52034;DHT22;38045;52.988;6.536;2023-07-02T05:54:14;16.30;99.90
52034;DHT22;38045;52.988;6.536;2023-07-02T05:56:39;16.40;99.90
52034;DHT22;38045;52.988;6.536;2023-07-02T05:59:05;16.40;99.90
52034;DHT22;38045;52.988;6.536;2023-07-02T06:01:30;16.40;99.90
52034;DHT22;38045;52.988;6.536;2023-07-02T06:03:56;16.40;99.90
52034;DHT22;38045;52.988;6.536;2023-07-02T06:06:22;16.50;99.90
52034;DHT22;38045;52.988;6.536;2023-07-02T06:08:50;16.50;99.90
52034;DHT22;38045;52.988;6.536;2023-07-02T06:11:15;16.50;99.90
52034;DHT22;38045;52.988;6.536;2023-07-02T06:13:41;16.50;99.90
52034;DHT22;38045;52.988;6.536;2023-07-02T06:16:07;16.40;99.90
52034;DHT22;38045;52.988;6.536;2023-07-02T06:18:32;16.40;99.90
52034;DHT22;38045;52.988;6.536;2023-07-02T06:20:58;16.40;99.90
52034;DHT22;38045;52.988;6.536;2023-07-02T06:23:23;16.50;99.90
52034;DHT22;38045;52.988;6.536;2023-07-02T06:25:49;16.70;99.90
52034;DHT22;38045;52.988;6.536;2023-07-02T06:28:17;16.70;99.90
52034;DHT22;38045;52.988;6.536;2023-07-02T06:30:43;16.80;99.90
52034;DHT22;38045;52.988;6.536;2023-07-02T06:33:08;16.90;99.90
52034;DHT22;38045;52.988;6.536;2023-07-02T06:35:34;17.00;99.90
52034;DHT22;38045;52.988;6.536;2023-07-02T06:37:59;17.00;99.90
52034;DHT22;38045;52.988;6.536;2023-07-02T06:40:25;17.10;99.90
52034;DHT22;38045;52.988;6.536;2023-07-02T06:42:51;17.10;99.90
52034;DHT22;38045;52.988;6.536;2023-07-02T06:45:16;17.10;99.90
52034;DHT22;38045;52.988;6.536;2023-07-02T06:47:42;17.20;99.90
52034;DHT22;38045;52.988;6.536;2023-07-02T06:50:08;17.30;99.90
52034;DHT22;38045;52.988;6.536;2023-07-02T06:52:33;17.40;99.90
52034;DHT22;38045;52.988;6.536;2023-07-02T06:54:59;17.40;99.90
52034;DHT22;38045;52.988;6.536;2023-07-02T06:57:25;17.40;99.90
52034;DHT22;38045;52.988;6.536;2023-07-02T06:59:50;17.30;99.90
52034;DHT22;38045;52.988;6.536;2023-07-02T07:02:16;17.40;99.90
52034;DHT22;38045;52.988;6.536;2023-07-02T07:04:42;17.40;99.90
52034;DHT22;38045;52.988;6.536;2023-07-02T07:07:07;17.40;99.90
52034;DHT22;38045;52.988;6.536;2023-07-02T07:09:33;17.30;99.90
52034;DHT22;38045;52.988;6.536;2023-07-02T07:11:59;17.40;99.90
52034;DHT22;38045;52.988;6.536;2023-07-02T07:14:24;17.40;99.90
52034;DHT22;38045;52.988;6.536;2023-07-02T07:16:50;17.50;99.90
52034;DHT22;38045;52.988;6.536;2023-07-02T07:19:16;17.50;99.90
52034;DHT22;38045;52.988;6.536;2023-07-02T07:21:42;17.40;99.90
52034;DHT22;38045;52.988;6.536;2023-07-02T07:24:09;17.20;99.90
52034;DHT22;38045;52.988;6.536;2023-07-02T07:26:34;17.20;99.90
52034;DHT22;38045;52.988;6.536;2023-07-02T07:29:00;17.30;99.90
52034;DHT22;38045;52.988;6.536;2023-07-02T07:31:25;17.40;99.90
52034;DHT22;38045;52.988;6.536;2023-07-02T07:33:51;17.50;99.90
52034;DHT22;38045;52.988;6.536;2023-07-02T07:36:17;17.50;99.90
52034;DHT22;38045;52.988;6.536;2023-07-02T07:38:45;17.40;99.90
52034;DHT22;38045;52.988;6.536;2023-07-02T07:41:11;17.60;99.90
52034;DHT22;38045;52.988;6.536;2023-07-02T07:43:37;17.80;99.90
52034;DHT22;38045;52.988;6.536;2023-07-02T07:46:02;17.90;99.90
52034;DHT22;38045;52.988;6.536;2023-07-02T07:48:28;18.00;99.90
52034;DHT22;38045;52.988;6.536;2023-07-02T07:50:54;17.90;99.90
52034;DHT22;38045;52.988;6.536;2023-07-02T07:53:19;17.80;99.90
52034;DHT22;38045;52.988;6.536;2023-07-02T07:55:45;17.70;99.90
52034;DHT22;38045;52.988;6.536;2023-07-02T07:58:10;17.60;99.90
52034;DHT22;38045;52.988;6.536;2023-07-02T08:00:36;17.50;99.90
52034;DHT22;38045;52.988;6.536;2023-07-02T08:03:03;17.40;99.90
52034;DHT22;38045;52.988;6.536;2023-07-02T08:05:29;17.40;99.90
52034;DHT22;38045;52.988;6.536;2023-07-02T08:07:55;17.40;99.90
52034;DHT22;38045;52.988;6.536;2023-07-02T08:10:21;17.60;99.90
52034;DHT22;38045;52.988;6.536;2023-07-02T08:12:46;17.70;99.90
52034;DHT22;38045;52.988;6.536;2023-07-02T08:15:14;17.80;99.90
52034;DHT22;38045;52.988;6.536;2023-07-02T08:17:40;17.90;99.90
52034;DHT22;38045;52.988;6.536;2023-07-02T08:20:06;17.90;99.90
52034;DHT22;38045;52.988;6.536;2023-07-02T08:22:36;17.70;99.90
52034;DHT22;38045;52.988;6.536;2023-07-02T08:25:02;17.60;99.90
52034;DHT22;38045;52.988;6.536;2023-07-02T08:27:28;17.60;99.90
52034;DHT22;38045;52.988;6.536;2023-07-02T08:29:53;17.60;99.90
52034;DHT22;38045;52.988;6.536;2023-07-02T08:32:19;17.70;99.90
52034;DHT22;38045;52.988;6.536;2023-07-02T08:34:45;17.80;99.90
52034;DHT22;38045;52.988;6.536;2023-07-02T08:37:10;17.70;99.90
52034;DHT22;38045;52.988;6.536;2023-07-02T08:39:37;17.60;99.90
52034;DHT22;38045;52.988;6.536;2023-07-02T08:42:05;17.50;99.90
52034;DHT22;38045;52.988;6.536;2023-07-02T08:44:31;17.40;99.90
52034;DHT22;38045;52.988;6.536;2023-07-02T08:46:56;17.40;99.90
52034;DHT22;38045;52.988;6.536;2023-07-02T08:49:22;17.30;99.90
52034;DHT22;38045;52.988;6.536;2023-07-02T08:51:48;17.30;99.90
52034;DHT22;38045;52.988;6.536;2023-07-02T08:54:14;17.40;99.90
52034;DHT22;38045;52.988;6.536;2023-07-02T08:56:42;17.60;99.90
52034;DHT22;38045;52.988;6.536;2023-07-02T08:59:08;17.90;99.90
52034;DHT22;38045;52.988;6.536;2023-07-02T09:01:45;18.00;99.90
52034;DHT22;38045;52.988;6.536;2023-07-02T09:04:16;18.20;99.90
52034;DHT22;38045;52.988;6.536;2023-07-02T09:06:41;18.20;99.90
52034;DHT22;38045;52.988;6.536;2023-07-02T09:09:07;18.20;99.90
52034;DHT22;38045;52.988;6.536;2023-07-02T09:11:34;18.30;99.90
52034;DHT22;38045;52.988;6.536;2023-07-02T09:13:59;18.30;99.90
52034;DHT22;38045;52.988;6.536;2023-07-02T09:16:32;18.40;99.90
52034;DHT22;38045;52.988;6.536;2023-07-02T09:19:07;18.30;99.90
52034;DHT22;38045;52.988;6.536;2023-07-02T09:21:46;18.00;99.90
52034;DHT22;38045;52.988;6.536;2023-07-02T09:24:16;17.80;99.90
52034;DHT22;38045;52.988;6.536;2023-07-02T09:26:42;17.60;99.90
52034;DHT22;38045;52.988;6.536;2023-07-02T09:29:07;17.50;99.90
52034;DHT22;38045;52.988;6.536;2023-07-02T09:31:46;17.40;99.90
52034;DHT22;38045;52.988;6.536;2023-07-02T09:34:12;17.50;99.90
52034;DHT22;38045;52.988;6.536;2023-07-02T09:36:38;17.40;99.90
52034;DHT22;38045;52.988;6.536;2023-07-02T09:39:12;17.50;99.90
52034;DHT22;38045;52.988;6.536;2023-07-02T09:41:41;17.50;99.90
52034;DHT22;38045;52.988;6.536;2023-07-02T09:44:08;17.50;99.90
52034;DHT22;38045;52.988;6.536;2023-07-02T09:46:37;17.40;99.90
52034;DHT22;38045;52.988;6.536;2023-07-02T09:49:13;17.50;99.90
52034;DHT22;38045;52.988;6.536;2023-07-02T09:51:40;17.50;99.90
52034;DHT22;38045;52.988;6.536;2023-07-02T09:54:06;17.50;99.90
52034;DHT22;38045;52.988;6.536;2023-07-02T09:56:31;17.80;99.90
52034;DHT22;38045;52.988;6.536;2023-07-02T09:58:57;18.00;99.90
52034;DHT22;38045;52.988;6.536;2023-07-02T10:01:22;18.20;99.90
52034;DHT22;38045;52.988;6.536;2023-07-02T10:03:48;18.20;99.90
52034;DHT22;38045;52.988;6.536;2023-07-02T10:06:14;18.30;99.90
52034;DHT22;38045;52.988;6.536;2023-07-02T10:08:39;18.30;99.90
52034;DHT22;38045;52.988;6.536;2023-07-02T10:11:09;18.20;99.90
52034;DHT22;38045;52.988;6.536;2023-07-02T10:13:35;18.10;99.90
52034;DHT22;38045;52.988;6.536;2023-07-02T10:16:02;18.10;99.90
52034;DHT22;38045;52.988;6.536;2023-07-02T10:18:28;18.30;99.90
52034;DHT22;38045;52.988;6.536;2023-07-02T10:20:53;18.50;99.90
52034;DHT22;38045;52.988;6.536;2023-07-02T10:23:19;18.60;99.90
52034;DHT22;38045;52.988;6.536;2023-07-02T10:25:44;18.60;99.90
52034;DHT22;38045;52.988;6.536;2023-07-02T10:28:18;18.60;99.90
52034;DHT22;38045;52.988;6.536;2023-07-02T10:30:48;18.40;99.90
52034;DHT22;38045;52.988;6.536;2023-07-02T10:33:17;18.40;99.90
52034;DHT22;38045;52.988;6.536;2023-07-02T10:35:48;18.50;99.90
52034;DHT22;38045;52.988;6.536;2023-07-02T10:38:22;18.60;99.90
52034;DHT22;38045;52.988;6.536;2023-07-02T10:40:55;18.60;99.90
52034;DHT22;38045;52.988;6.536;2023-07-02T10:43:29;18.70;99.90
52034;DHT22;38045;52.988;6.536;2023-07-02T10:45:55;18.80;99.90
52034;DHT22;38045;52.988;6.536;2023-07-02T10:48:21;18.90;99.90
52034;DHT22;38045;52.988;6.536;2023-07-02T10:50:47;18.90;99.90
52034;DHT22;38045;52.988;6.536;2023-07-02T10:53:17;18.80;99.90
52034;DHT22;38045;52.988;6.536;2023-07-02T10:55:43;18.80;99.90
52034;DHT22;38045;52.988;6.536;2023-07-02T10:58:10;18.90;99.90
52034;DHT22;38045;52.988;6.536;2023-07-02T11:00:46;19.20;99.90
52034;DHT22;38045;52.988;6.536;2023-07-02T11:03:22;19.30;99.90
52034;DHT22;38045;52.988;6.536;2023-07-02T11:05:50;19.20;99.90
52034;DHT22;38045;52.988;6.536;2023-07-02T11:08:15;19.10;99.90
52034;DHT22;38045;52.988;6.536;2023-07-02T11:10:42;18.90;99.90
52034;DHT22;38045;52.988;6.536;2023-07-02T11:13:25;18.80;99.90
52034;DHT22;38045;52.988;6.536;2023-07-02T11:15:51;18.90;99.90
52034;DHT22;38045;52.988;6.536;2023-07-02T11:18:17;19.00;99.90
52034;DHT22;38045;52.988;6.536;2023-07-02T11:20:46;19.10;99.90
52034;DHT22;38045;52.988;6.536;2023-07-02T11:23:23;19.00;99.90
52034;DHT22;38045;52.988;6.536;2023-07-02T11:26:02;19.10;99.90
52034;DHT22;38045;52.988;6.536;2023-07-02T11:28:29;19.00;99.90
52034;DHT22;38045;52.988;6.536;2023-07-02T11:30:56;18.90;99.90
52034;DHT22;38045;52.988;6.536;2023-07-02T11:33:39;18.80;99.90
52034;DHT22;38045;52.988;6.536;2023-07-02T11:36:06;18.50;99.90
52034;DHT22;38045;52.988;6.536;2023-07-02T11:38:36;18.50;99.90
52034;DHT22;38045;52.988;6.536;2023-07-02T11:41:03;18.70;99.90
52034;DHT22;38045;52.988;6.536;2023-07-02T11:43:29;18.90;99.90
52034;DHT22;38045;52.988;6.536;2023-07-02T11:45:54;19.10;99.90
52034;DHT22;38045;52.988;6.536;2023-07-02T11:48:20;19.10;99.90
52034;DHT22;38045;52.988;6.536;2023-07-02T11:50:46;19.00;99.90
52034;DHT22;38045;52.988;6.536;2023-07-02T11:53:11;18.90;99.90
52034;DHT22;38045;52.988;6.536;2023-07-02T11:55:37;18.70;99.90
52034;DHT22;38045;52.988;6.536;2023-07-02T11:58:02;18.70;99.90
52034;DHT22;38045;52.988;6.536;2023-07-02T12:00:28;19.00;99.90
52034;DHT22;38045;52.988;6.536;2023-07-02T12:02:54;19.30;99.90
52034;DHT22;38045;52.988;6.536;2023-07-02T12:05:19;19.40;99.90
52034;DHT22;38045;52.988;6.536;2023-07-02T12:07:45;19.40;99.80
52034;DHT22;38045;52.988;6.536;2023-07-02T12:10:11;19.50;99.90
52034;DHT22;38045;52.988;6.536;2023-07-02T12:12:36;19.60;99.90
52034;DHT22;38045;52.988;6.536;2023-07-02T12:15:02;19.80;99.90
52034;DHT22;38045;52.988;6.536;2023-07-02T12:17:28;20.00;99.60
52034;DHT22;38045;52.988;6.536;2023-07-02T12:19:53;19.70;98.80
52034;DHT22;38045;52.988;6.536;2023-07-02T12:22:19;19.40;99.60
52034;DHT22;38045;52.988;6.536;2023-07-02T12:24:47;19.20;99.90
52034;DHT22;38045;52.988;6.536;2023-07-02T12:27:14;19.30;99.90
52034;DHT22;38045;52.988;6.536;2023-07-02T12:29:39;19.30;99.90
52034;DHT22;38045;52.988;6.536;2023-07-02T12:32:05;19.30;99.90
52034;DHT22;38045;52.988;6.536;2023-07-02T12:34:31;19.20;99.90
52034;DHT22;38045;52.988;6.536;2023-07-02T12:36:57;19.20;99.90
52034;DHT22;38045;52.988;6.536;2023-07-02T12:39:23;19.00;99.90
52034;DHT22;38045;52.988;6.536;2023-07-02T12:41:48;18.90;99.90
52034;DHT22;38045;52.988;6.536;2023-07-02T12:44:14;18.80;99.90
52034;DHT22;38045;52.988;6.536;2023-07-02T12:46:40;18.70;99.90
52034;DHT22;38045;52.988;6.536;2023-07-02T12:49:05;18.60;99.90
52034;DHT22;38045;52.988;6.536;2023-07-02T12:51:31;18.60;99.90
52034;DHT22;38045;52.988;6.536;2023-07-02T12:53:56;18.60;99.90
52034;DHT22;38045;52.988;6.536;2023-07-02T12:56:22;18.80;99.90
52034;DHT22;38045;52.988;6.536;2023-07-02T12:58:48;18.70;99.90
52034;DHT22;38045;52.988;6.536;2023-07-02T13:01:13;19.00;99.90
52034;DHT22;38045;52.988;6.536;2023-07-02T13:03:45;19.20;99.90
52034;DHT22;38045;52.988;6.536;2023-07-02T13:06:10;19.20;99.90
52034;DHT22;38045;52.988;6.536;2023-07-02T13:08:36;19.10;99.90
52034;DHT22;38045;52.988;6.536;2023-07-02T13:11:01;18.90;99.90
52034;DHT22;38045;52.988;6.536;2023-07-02T13:13:27;18.70;99.90
52034;DHT22;38045;52.988;6.536;2023-07-02T13:15:53;18.60;99.90
52034;DHT22;38045;52.988;6.536;2023-07-02T13:18:18;18.50;99.90
52034;DHT22;38045;52.988;6.536;2023-07-02T13:20:44;18.40;99.90
52034;DHT22;38045;52.988;6.536;2023-07-02T13:23:10;18.40;99.90
52034;DHT22;38045;52.988;6.536;2023-07-02T13:25:35;18.50;99.90
52034;DHT22;38045;52.988;6.536;2023-07-02T13:28:01;18.60;99.00
52034;DHT22;38045;52.988;6.536;2023-07-02T13:30:27;18.80;99.10
52034;DHT22;38045;52.988;6.536;2023-07-02T13:32:54;19.00;98.60
52034;DHT22;38045;52.988;6.536;2023-07-02T13:35:19;19.10;98.70
52034;DHT22;38045;52.988;6.536;2023-07-02T13:37:45;19.20;98.00
52034;DHT22;38045;52.988;6.536;2023-07-02T13:40:11;19.20;96.00
52034;DHT22;38045;52.988;6.536;2023-07-02T13:42:38;19.40;96.20
52034;DHT22;38045;52.988;6.536;2023-07-02T13:45:04;19.60;96.10
52034;DHT22;38045;52.988;6.536;2023-07-02T13:47:30;19.60;95.90
52034;DHT22;38045;52.988;6.536;2023-07-02T13:49:56;19.60;95.60
52034;DHT22;38045;52.988;6.536;2023-07-02T13:52:21;19.50;96.30
52034;DHT22;38045;52.988;6.536;2023-07-02T13:54:47;19.40;96.50
52034;DHT22;38045;52.988;6.536;2023-07-02T13:57:13;19.30;96.50
52034;DHT22;38045;52.988;6.536;2023-07-02T13:59:39;19.40;96.10
52034;DHT22;38045;52.988;6.536;2023-07-02T14:02:05;19.40;95.60
52034;DHT22;38045;52.988;6.536;2023-07-02T14:04:31;19.50;95.30
52034;DHT22;38045;52.988;6.536;2023-07-02T14:06:57;19.60;95.80
52034;DHT22;38045;52.988;6.536;2023-07-02T14:09:22;19.40;95.90
52034;DHT22;38045;52.988;6.536;2023-07-02T14:11:48;19.30;96.80
52034;DHT22;38045;52.988;6.536;2023-07-02T14:14:14;19.40;97.10
52034;DHT22;38045;52.988;6.536;2023-07-02T14:16:39;19.50;96.10
52034;DHT22;38045;52.988;6.536;2023-07-02T14:19:06;19.50;96.20
52034;DHT22;38045;52.988;6.536;2023-07-02T14:21:32;19.30;96.90
52034;DHT22;38045;52.988;6.536;2023-07-02T14:23:58;19.20;96.50
52034;DHT22;38045;52.988;6.536;2023-07-02T14:26:24;19.00;96.90
52034;DHT22;38045;52.988;6.536;2023-07-02T14:28:50;19.00;97.10
52034;DHT22;38045;52.988;6.536;2023-07-02T14:31:15;18.90;97.30
52034;DHT22;38045;52.988;6.536;2023-07-02T14:33:41;19.00;97.50
52034;DHT22;38045;52.988;6.536;2023-07-02T14:36:07;19.10;96.40
52034;DHT22;38045;52.988;6.536;2023-07-02T14:38:33;19.00;96.40
52034;DHT22;38045;52.988;6.536;2023-07-02T14:40:59;18.90;97.00
52034;DHT22;38045;52.988;6.536;2023-07-02T14:43:28;18.90;97.20
52034;DHT22;38045;52.988;6.536;2023-07-02T14:45:56;18.90;97.00
52034;DHT22;38045;52.988;6.536;2023-07-02T14:48:22;18.90;97.00
52034;DHT22;38045;52.988;6.536;2023-07-02T14:50:53;18.80;97.50
52034;DHT22;38045;52.988;6.536;2023-07-02T14:53:19;18.80;97.50
52034;DHT22;38045;52.988;6.536;2023-07-02T14:55:46;18.90;97.90
52034;DHT22;38045;52.988;6.536;2023-07-02T14:58:13;18.90;97.80
52034;DHT22;38045;52.988;6.536;2023-07-02T15:00:46;18.90;97.30
52034;DHT22;38045;52.988;6.536;2023-07-02T15:03:12;18.80;97.30
52034;DHT22;38045;52.988;6.536;2023-07-02T15:05:39;18.70;97.60
52034;DHT22;38045;52.988;6.536;2023-07-02T15:08:06;18.60;97.70
52034;DHT22;38045;52.988;6.536;2023-07-02T15:10:32;18.60;97.70
52034;DHT22;38045;52.988;6.536;2023-07-02T15:12:58;18.70;97.80
52034;DHT22;38045;52.988;6.536;2023-07-02T15:15:24;18.90;97.70
52034;DHT22;38045;52.988;6.536;2023-07-02T15:17:49;19.20;96.90
52034;DHT22;38045;52.988;6.536;2023-07-02T15:20:15;19.40;96.00
52034;DHT22;38045;52.988;6.536;2023-07-02T15:22:41;19.40;95.80
52034;DHT22;38045;52.988;6.536;2023-07-02T15:25:07;19.40;96.10
52034;DHT22;38045;52.988;6.536;2023-07-02T15:27:33;19.20;95.80